createdAt,value
2022-09-23T00:02:29.925Z,7.87
2022-09-23T00:05:33.117Z,7.92
2022-09-23T00:08:35.241Z,7.91
2022-09-23T00:11:38.323Z,8.02
2022-09-23T00:14:40.301Z,8.06
2022-09-23T00:17:42.581Z,8.13
2022-09-23T00:20:45.164Z,8.22
2022-09-23T00:23:47.638Z,8.27
2022-09-23T00:26:49.737Z,8.29
2022-09-23T00:29:51.985Z,8.36
2022-09-23T00:32:54.023Z,8.38
2022-09-23T00:36:04.443Z,8.41
2022-09-23T00:39:06.661Z,8.43
2022-09-23T00:42:18.849Z,8.47
2022-09-23T00:45:21.067Z,8.55
2022-09-23T00:48:23.397Z,8.53
2022-09-23T00:51:31.467Z,8.60
2022-09-23T00:54:34.076Z,8.62
2022-09-23T00:57:37.550Z,8.65
2022-09-23T01:00:39.881Z,8.68
2022-09-23T01:03:44.901Z,8.75
2022-09-23T01:07:09.145Z,8.74
2022-09-23T01:10:13.740Z,8.71
2022-09-23T01:13:23.261Z,8.70
2022-09-23T01:16:36.346Z,8.74
2022-09-23T01:20:04.054Z,8.73
2022-09-23T01:23:46.689Z,8.70
2022-09-23T01:26:57.942Z,8.71
2022-09-23T01:30:12.227Z,8.65
2022-09-23T01:33:30.686Z,8.66
2022-09-23T01:36:42.381Z,8.61
2022-09-23T01:39:53.941Z,8.59
2022-09-23T01:43:15.679Z,8.57
2022-09-23T01:46:22.206Z,8.55
2022-09-23T01:49:39.011Z,8.51
2022-09-23T01:52:47.247Z,8.48
2022-09-23T01:55:52.136Z,8.37
2022-09-23T01:59:06.011Z,8.32
2022-09-23T02:02:15.315Z,8.23
2022-09-23T02:05:37.727Z,8.11
2022-09-23T02:09:08.275Z,8.03
2022-09-23T02:12:15.780Z,7.98
2022-09-23T02:15:29.341Z,7.88
2022-09-23T02:18:42.622Z,7.77
2022-09-23T02:21:55.464Z,7.77
2022-09-23T02:24:57.918Z,7.70
2022-09-23T02:28:11.752Z,7.63
2022-09-23T02:31:37.254Z,7.56
2022-09-23T02:35:10.418Z,7.45
2022-09-23T02:38:31.182Z,7.42
2022-09-23T02:41:55.614Z,7.37
2022-09-23T02:44:58.971Z,7.32
2022-09-23T02:48:27.196Z,7.28
2022-09-23T02:51:29.670Z,7.17
2022-09-23T02:54:35.455Z,7.11
2022-09-23T02:57:38.029Z,7.08
2022-09-23T03:01:06.221Z,7.04
2022-09-23T03:04:08.628Z,6.97
2022-09-23T03:07:48.252Z,6.91
2022-09-23T03:11:11.253Z,6.81
2022-09-23T03:14:32.119Z,6.77
2022-09-23T03:18:12.198Z,6.68
2022-09-23T03:21:38.476Z,6.63
2022-09-23T03:24:44.883Z,6.52
2022-09-23T03:27:46.942Z,6.53
2022-09-23T03:30:53.314Z,6.45
2022-09-23T03:33:58.123Z,6.43
2022-09-23T03:37:11.244Z,6.42
2022-09-23T03:40:17.385Z,6.33
2022-09-23T03:43:20.054Z,6.30
2022-09-23T03:46:25.339Z,6.31
2022-09-23T03:49:35.394Z,6.28
2022-09-23T03:52:39.779Z,6.22
2022-09-23T03:55:42.152Z,6.29
2022-09-23T03:58:46.431Z,6.28
2022-09-23T04:01:48.836Z,6.25
2022-09-23T04:04:51.384Z,6.20
2022-09-23T04:07:54.913Z,6.15
2022-09-23T04:11:04.726Z,6.18
2022-09-23T04:14:07.270Z,6.15
2022-09-23T04:17:09.771Z,6.10
2022-09-23T04:20:12.462Z,6.11
2022-09-23T04:23:14.599Z,6.07
2022-09-23T04:26:16.910Z,6.01
2022-09-23T04:29:19.659Z,5.97
2022-09-23T04:32:21.923Z,5.95
2022-09-23T04:35:23.925Z,5.88
2022-09-23T04:38:26.291Z,5.83
2022-09-23T04:41:28.375Z,5.70
2022-09-23T04:44:31.079Z,5.71
2022-09-23T04:47:33.165Z,5.72
2022-09-23T04:50:35.403Z,5.70
2022-09-23T04:53:39.286Z,5.58
2022-09-23T04:56:42.264Z,5.53
2022-09-23T04:59:45.316Z,5.55
2022-09-23T05:02:49.760Z,5.49
2022-09-23T05:05:51.880Z,5.51
2022-09-23T05:08:56.187Z,5.48
2022-09-23T05:11:58.301Z,5.51
2022-09-23T05:15:00.647Z,5.45
2022-09-23T05:18:02.710Z,5.47
2022-09-23T05:21:05.152Z,5.62
2022-09-23T05:24:07.486Z,5.72
2022-09-23T05:27:09.757Z,5.83
2022-09-23T05:30:12.509Z,5.95
2022-09-23T05:33:14.936Z,5.91
2022-09-23T05:36:20.726Z,6.15
2022-09-23T05:39:23.085Z,6.26
2022-09-23T05:42:25.203Z,6.38
2022-09-23T05:45:27.537Z,6.44
2022-09-23T05:48:31.942Z,6.60
2022-09-23T05:51:35.800Z,6.62
2022-09-23T05:54:38.451Z,6.76
2022-09-23T05:57:40.673Z,6.84
2022-09-23T06:00:44.210Z,6.93
2022-09-23T06:03:47.777Z,6.97
2022-09-23T06:06:49.781Z,7.09
2022-09-23T06:09:53.956Z,7.18
2022-09-23T06:12:55.997Z,7.21
2022-09-23T06:15:58.586Z,7.26
2022-09-23T06:19:06.154Z,7.28
2022-09-23T06:22:10.853Z,7.36
2022-09-23T06:25:14.173Z,7.39
2022-09-23T06:28:16.410Z,7.46
2022-09-23T06:31:18.500Z,7.52
2022-09-23T06:34:21.445Z,7.59
2022-09-23T06:37:24.301Z,7.62
2022-09-23T06:40:26.720Z,7.67
2022-09-23T06:43:29.461Z,7.85
2022-09-23T06:46:31.869Z,7.94
2022-09-23T06:49:34.008Z,8.04
2022-09-23T06:52:36.205Z,8.14
2022-09-23T06:55:38.342Z,8.28
2022-09-23T06:58:41.277Z,8.36
2022-09-23T07:01:45.360Z,8.58
2022-09-23T07:04:47.700Z,8.77
2022-09-23T07:07:49.814Z,9.08
2022-09-23T07:10:56.992Z,9.43
2022-09-23T07:13:59.049Z,9.58
2022-09-23T07:17:01.959Z,9.97
2022-09-23T07:20:04.274Z,10.25
2022-09-23T07:23:06.636Z,10.69
2022-09-23T07:26:08.927Z,11.29
2022-09-23T07:29:13.814Z,11.55
2022-09-23T07:32:16.751Z,11.75
2022-09-23T07:35:19.373Z,11.83
2022-09-23T07:38:24.731Z,11.98
2022-09-23T07:41:28.850Z,12.17
2022-09-23T07:44:32.037Z,12.31
2022-09-23T07:47:34.964Z,12.74
2022-09-23T07:50:39.465Z,12.87
2022-09-23T07:53:41.879Z,13.26
2022-09-23T07:56:44.433Z,13.29
2022-09-23T07:59:46.874Z,13.11
2022-09-23T08:02:52.798Z,13.14
2022-09-23T08:06:04.474Z,13.25
2022-09-23T08:09:06.607Z,13.31
2022-09-23T08:12:16.962Z,13.66
2022-09-23T08:15:18.925Z,13.76
2022-09-23T08:18:21.179Z,13.81
2022-09-23T08:21:23.352Z,14.24
2022-09-23T08:24:26.535Z,14.37
2022-09-23T08:27:29.717Z,14.23
2022-09-23T08:30:32.094Z,14.77
2022-09-23T08:33:34.167Z,14.90
2022-09-23T08:36:36.678Z,15.17
2022-09-23T08:39:38.700Z,14.93
2022-09-23T08:42:43.905Z,14.58
2022-09-23T08:45:46.488Z,14.64
2022-09-23T08:48:49.528Z,14.91
2022-09-23T08:51:54.873Z,15.34
2022-09-23T08:54:57.220Z,15.78
2022-09-23T08:58:25.349Z,16.15
2022-09-23T09:01:38.877Z,16.10
2022-09-23T09:04:44.434Z,16.46
2022-09-23T09:07:46.851Z,16.61
2022-09-23T09:10:49.618Z,16.89
2022-09-23T09:14:20.572Z,17.22
2022-09-23T09:17:30.640Z,17.30
2022-09-23T09:20:38.961Z,17.42
2022-09-23T09:23:58.297Z,17.23
2022-09-23T09:27:13.474Z,17.15
2022-09-23T09:30:16.575Z,17.66
2022-09-23T09:33:22.221Z,17.71
2022-09-23T09:36:40.128Z,18.16
2022-09-23T09:39:42.430Z,18.34
2022-09-23T09:42:49.515Z,18.15
2022-09-23T09:46:34.259Z,18.50
2022-09-23T09:49:40.795Z,18.78
2022-09-23T09:52:43.176Z,18.33
2022-09-23T09:55:46.152Z,17.62
2022-09-23T09:58:55.250Z,17.54
2022-09-23T10:02:24.476Z,18.09
2022-09-23T10:05:28.341Z,18.06
2022-09-23T10:08:35.047Z,18.12
2022-09-23T10:11:38.285Z,18.57
2022-09-23T10:14:40.362Z,19.17
2022-09-23T10:17:42.819Z,19.25
2022-09-23T10:20:46.189Z,18.98
2022-09-23T10:23:52.910Z,18.86
2022-09-23T10:27:04.501Z,19.09
2022-09-23T10:30:28.022Z,19.49
2022-09-23T10:33:31.701Z,19.69
2022-09-23T10:36:33.978Z,20.04
2022-09-23T10:39:54.546Z,19.81
2022-09-23T10:43:24.502Z,19.54
2022-09-23T10:46:39.708Z,19.04
2022-09-23T10:49:57.589Z,18.91
2022-09-23T10:53:11.909Z,18.59
2022-09-23T10:56:52.526Z,18.16
2022-09-23T11:00:14.651Z,18.31
2022-09-23T11:03:30.490Z,18.67
2022-09-23T11:07:01.680Z,18.67
2022-09-23T11:10:47.110Z,18.69
2022-09-23T11:14:08.198Z,19.01
2022-09-23T11:17:22.495Z,19.24
2022-09-23T11:20:58.709Z,19.48
2022-09-23T11:24:15.976Z,19.55
2022-09-23T11:27:42.950Z,19.84
2022-09-23T11:30:51.382Z,19.82
2022-09-23T11:34:00.546Z,20.06
2022-09-23T11:37:19.837Z,20.32
2022-09-23T11:40:31.675Z,20.29
2022-09-23T11:43:36.409Z,20.51
2022-09-23T11:46:42.482Z,20.54
2022-09-23T11:49:51.762Z,20.73
2022-09-23T11:53:02.669Z,20.89
2022-09-23T11:56:12.288Z,20.55
2022-09-23T11:59:43.438Z,20.32
2022-09-23T12:03:00.542Z,19.44
2022-09-23T12:06:15.131Z,19.12
2022-09-23T12:09:58.288Z,19.11
2022-09-23T12:13:27.302Z,19.12
2022-09-23T12:16:56.031Z,18.76
2022-09-23T12:20:01.045Z,18.57
2022-09-23T12:23:26.794Z,18.68
2022-09-23T12:26:29.870Z,18.74
2022-09-23T12:29:32.728Z,18.90
2022-09-23T12:32:34.874Z,19.06
2022-09-23T12:35:41.453Z,19.35
2022-09-23T12:38:52.634Z,19.41
2022-09-23T12:42:01.513Z,19.52
2022-09-23T12:45:38.664Z,19.54
2022-09-23T12:49:08.256Z,19.46
2022-09-23T12:52:16.713Z,19.72
2022-09-23T12:55:24.935Z,19.29
2022-09-23T12:58:58.259Z,19.24
2022-09-23T13:02:37.775Z,18.54
2022-09-23T13:06:17.115Z,17.99
2022-09-23T13:09:24.897Z,17.73
2022-09-23T13:12:33.476Z,17.58
2022-09-23T13:15:36.862Z,17.41
2022-09-23T13:18:51.055Z,17.41
2022-09-23T13:21:53.344Z,17.41
2022-09-23T13:25:01.083Z,17.41
2022-09-23T13:28:04.029Z,17.33
2022-09-23T13:31:10.909Z,17.36
2022-09-23T13:34:16.705Z,17.27
2022-09-23T13:37:24.076Z,17.45
2022-09-23T13:40:28.641Z,17.55
2022-09-23T13:43:58.606Z,17.33
2022-09-23T13:47:03.524Z,17.39
2022-09-23T13:50:06.353Z,17.51
2022-09-23T13:53:11.960Z,17.58
2022-09-23T13:56:15.603Z,17.60
2022-09-23T13:59:37.285Z,17.89
2022-09-23T14:02:47.101Z,17.88
2022-09-23T14:05:50.043Z,18.02
2022-09-23T14:08:52.448Z,18.19
2022-09-23T14:11:59.869Z,18.41
2022-09-23T14:15:02.029Z,18.15
2022-09-23T14:18:06.748Z,17.87
2022-09-23T14:21:35.391Z,17.88
2022-09-23T14:24:38.616Z,17.43
2022-09-23T14:27:42.222Z,17.45
2022-09-23T14:30:48.249Z,17.51
2022-09-23T14:33:50.610Z,17.48
2022-09-23T14:37:11.795Z,17.56
2022-09-23T14:40:17.472Z,17.42
2022-09-23T14:43:25.339Z,17.38
2022-09-23T14:46:30.764Z,17.26
2022-09-23T14:49:33.327Z,17.13
2022-09-23T14:52:35.486Z,16.93
2022-09-23T14:55:38.255Z,16.62
2022-09-23T14:58:51.975Z,16.50
2022-09-23T15:01:55.256Z,16.43
2022-09-23T15:05:17.890Z,16.36
2022-09-23T15:08:23.390Z,16.06
2022-09-23T15:11:26.732Z,16.04
2022-09-23T15:14:39.448Z,15.83
2022-09-23T15:17:43.359Z,16.06
2022-09-23T15:20:52.273Z,16.23
2022-09-23T15:23:55.664Z,16.36
2022-09-23T15:26:58.026Z,16.57
2022-09-23T15:30:19.657Z,16.42
2022-09-23T15:33:28.093Z,16.31
2022-09-23T15:36:30.235Z,16.21
2022-09-23T15:39:36.411Z,16.02
2022-09-23T15:42:38.760Z,16.01
2022-09-23T15:45:45.028Z,16.04
2022-09-23T15:49:01.413Z,15.92
2022-09-23T15:52:05.645Z,15.98
2022-09-23T15:55:24.177Z,15.84
2022-09-23T15:58:27.682Z,15.77
2022-09-23T16:01:36.489Z,15.81
2022-09-23T16:04:39.275Z,15.71
2022-09-23T16:07:41.439Z,15.73
2022-09-23T16:10:44.013Z,15.48
2022-09-23T16:13:46.859Z,15.48
2022-09-23T16:16:49.995Z,15.52
2022-09-23T16:19:52.428Z,15.49
2022-09-23T16:22:58.081Z,15.45
2022-09-23T16:26:09.649Z,15.45
2022-09-23T16:29:17.209Z,15.41
2022-09-23T16:32:22.405Z,15.39
2022-09-23T16:35:26.279Z,15.37
2022-09-23T16:38:29.242Z,15.33
2022-09-23T16:41:32.434Z,15.28
2022-09-23T16:44:36.639Z,15.22
2022-09-23T16:47:44.958Z,15.18
2022-09-23T16:50:47.707Z,15.12
2022-09-23T16:53:51.394Z,14.99
2022-09-23T16:56:55.307Z,14.91
2022-09-23T17:00:16.344Z,14.80
2022-09-23T17:03:37.035Z,14.79
2022-09-23T17:06:50.317Z,14.71
2022-09-23T17:09:52.642Z,14.60
2022-09-23T17:12:55.104Z,14.57
2022-09-23T17:15:57.723Z,14.46
2022-09-23T17:19:04.759Z,14.42
2022-09-23T17:22:08.000Z,14.37
2022-09-23T17:25:12.521Z,14.29
2022-09-23T17:28:16.863Z,14.19
2022-09-23T17:31:19.648Z,14.12
2022-09-23T17:34:22.032Z,14.02
2022-09-23T17:37:24.421Z,13.98
2022-09-23T17:40:26.783Z,13.96
2022-09-23T17:43:31.098Z,13.82
2022-09-23T17:46:33.203Z,13.60
2022-09-23T17:49:35.558Z,13.68
2022-09-23T17:52:37.737Z,13.69
2022-09-23T17:55:40.159Z,13.72
2022-09-23T17:58:44.061Z,13.76
2022-09-23T18:01:46.480Z,13.71
2022-09-23T18:04:49.095Z,13.75
2022-09-23T18:07:51.575Z,13.76
2022-09-23T18:10:53.582Z,13.79
2022-09-23T18:14:01.688Z,13.78
2022-09-23T18:17:03.878Z,13.74
2022-09-23T18:20:07.004Z,13.71
2022-09-23T18:23:09.160Z,13.62
2022-09-23T18:26:16.149Z,13.60
2022-09-23T18:29:18.696Z,13.55
2022-09-23T18:32:21.143Z,13.52
2022-09-23T18:35:23.804Z,13.42
2022-09-23T18:38:26.270Z,13.32
2022-09-23T18:41:28.577Z,13.34
2022-09-23T18:44:31.656Z,13.35
2022-09-23T18:47:52.721Z,13.29
2022-09-23T18:50:58.182Z,13.28
2022-09-23T18:54:01.654Z,13.21
2022-09-23T18:57:04.499Z,13.13
2022-09-23T19:00:09.229Z,13.14
2022-09-23T19:03:11.698Z,13.02
2022-09-23T19:06:21.038Z,13.02
2022-09-23T19:09:24.611Z,12.94
2022-09-23T19:12:26.793Z,12.87
2022-09-23T19:15:29.190Z,12.88
2022-09-23T19:18:32.144Z,12.89
2022-09-23T19:21:34.810Z,12.82
2022-09-23T19:24:37.012Z,12.81
2022-09-23T19:27:40.347Z,12.80
2022-09-23T19:30:42.536Z,12.70
2022-09-23T19:33:49.818Z,12.68
2022-09-23T19:36:57.327Z,12.58
2022-09-23T19:39:59.770Z,12.56
2022-09-23T19:43:01.822Z,12.51
2022-09-23T19:46:09.209Z,12.42
2022-09-23T19:49:11.913Z,12.36
2022-09-23T19:52:14.476Z,12.28
2022-09-23T19:55:16.584Z,12.27
2022-09-23T19:58:18.886Z,12.25
2022-09-23T20:01:22.324Z,12.09
2022-09-23T20:04:24.945Z,12.01
2022-09-23T20:07:27.027Z,11.97
2022-09-23T20:10:29.376Z,11.84
2022-09-23T20:13:33.895Z,11.73
2022-09-23T20:16:37.324Z,11.62
2022-09-23T20:19:40.572Z,11.53
2022-09-23T20:22:42.991Z,11.40
2022-09-23T20:26:03.526Z,11.25
2022-09-23T20:29:06.065Z,11.15
2022-09-23T20:32:09.333Z,10.98
2022-09-23T20:35:11.906Z,10.93
2022-09-23T20:38:14.013Z,10.85
2022-09-23T20:41:17.266Z,10.75
2022-09-23T20:44:19.380Z,10.47
2022-09-23T20:47:23.773Z,10.44
2022-09-23T20:50:25.931Z,10.36
2022-09-23T20:53:28.454Z,10.25
2022-09-23T20:56:31.062Z,10.22
2022-09-23T20:59:34.402Z,10.15
2022-09-23T21:02:36.664Z,10.04
2022-09-23T21:05:42.165Z,9.90
2022-09-23T21:08:44.892Z,9.87
2022-09-23T21:11:47.247Z,9.85
2022-09-23T21:14:49.402Z,9.65
2022-09-23T21:17:52.438Z,9.63
2022-09-23T21:20:58.104Z,9.45
2022-09-23T21:24:24.484Z,9.37
2022-09-23T21:27:23.021Z,9.21
2022-09-23T21:30:25.718Z,9.26
2022-09-23T21:33:28.690Z,9.22
2022-09-23T21:36:33.221Z,9.17
2022-09-23T21:39:35.355Z,9.08
2022-09-23T21:42:37.809Z,9.00
2022-09-23T21:45:40.172Z,9.01
2022-09-23T21:48:43.089Z,8.96
2022-09-23T21:51:45.363Z,8.95
2022-09-23T21:54:47.781Z,8.93
2022-09-23T21:57:51.921Z,9.01
2022-09-23T22:00:57.714Z,8.94
2022-09-23T22:04:08.225Z,8.87
2022-09-23T22:07:10.879Z,8.66
2022-09-23T22:10:12.936Z,8.70
2022-09-23T22:13:16.468Z,8.83
2022-09-23T22:16:19.043Z,8.80
2022-09-23T22:19:21.330Z,8.67
2022-09-23T22:22:23.426Z,8.78
2022-09-23T22:25:26.058Z,8.80
2022-09-23T22:28:46.868Z,8.81
2022-09-23T22:32:08.146Z,8.89
2022-09-23T22:35:17.955Z,8.83
2022-09-23T22:38:21.220Z,8.78
2022-09-23T22:41:24.368Z,8.77
2022-09-23T22:44:26.694Z,8.55
2022-09-23T22:47:28.700Z,8.48
2022-09-23T22:50:30.958Z,8.58
2022-09-23T22:53:33.577Z,8.60
2022-09-23T22:56:36.065Z,8.61
2022-09-23T22:59:38.284Z,8.61
2022-09-23T23:02:42.479Z,8.66
2022-09-23T23:05:45.892Z,8.46
2022-09-23T23:08:48.193Z,8.33
2022-09-23T23:11:50.210Z,8.36
2022-09-23T23:14:52.678Z,8.41
2022-09-23T23:17:59.212Z,8.49
2022-09-23T23:21:16.034Z,8.46
2022-09-23T23:24:23.250Z,8.39
2022-09-23T23:27:25.632Z,8.19
2022-09-23T23:30:27.683Z,8.06
2022-09-23T23:33:29.930Z,7.94
2022-09-23T23:36:31.951Z,8.10
2022-09-23T23:39:34.716Z,8.05
2022-09-23T23:42:36.805Z,8.04
2022-09-23T23:45:39.111Z,7.89
2022-09-23T23:48:43.015Z,7.90
2022-09-23T23:51:45.379Z,7.91
2022-09-23T23:54:47.405Z,7.83
2022-09-23T23:57:51.640Z,7.77
